sensor_id;sensor_type;location;lat;lon;timestamp;temperature;humidity
1602;DHT22;794;48.592;9.634;2024-01-30T00:00:26;1.60;1.00
1602;DHT22;794;48.592;9.634;2024-01-30T00:02:53;1.90;1.00
1602;DHT22;794;48.592;9.634;2024-01-30T00:05:19;1.30;1.00
1602;DHT22;794;48.592;9.634;2024-01-30T00:07:48;1.50;1.00
1602;DHT22;794;48.592;9.634;2024-01-30T00:10:15;1.90;1.00
1602;DHT22;794;48.592;9.634;2024-01-30T00:12:42;1.50;1.00
1602;DHT22;794;48.592;9.634;2024-01-30T00:15:09;1.70;1.00
1602;DHT22;794;48.592;9.634;2024-01-30T00:17:36;1.40;1.00
1602;DHT22;794;48.592;9.634;2024-01-30T00:20:04;1.40;1.00
1602;DHT22;794;48.592;9.634;2024-01-30T00:22:32;1.10;1.00
1602;DHT22;794;48.592;9.634;2024-01-30T00:25:01;2.00;1.00
1602;DHT22;794;48.592;9.634;2024-01-30T00:27:27;3.50;1.00
1602;DHT22;794;48.592;9.634;2024-01-30T00:29:54;3.10;1.00
1602;DHT22;794;48.592;9.634;2024-01-30T00:32:21;1.30;1.00
1602;DHT22;794;48.592;9.634;2024-01-30T00:34:49;1.10;1.00
1602;DHT22;794;48.592;9.634;2024-01-30T00:37:16;0.90;1.00
1602;DHT22;794;48.592;9.634;2024-01-30T00:39:42;1.10;1.00
1602;DHT22;794;48.592;9.634;2024-01-30T00:42:11;1.10;1.00
1602;DHT22;794;48.592;9.634;2024-01-30T00:44:38;1.00;1.00
1602;DHT22;794;48.592;9.634;2024-01-30T00:47:05;-0.10;1.00
1602;DHT22;794;48.592;9.634;2024-01-30T00:49:32;1.30;1.00
1602;DHT22;794;48.592;9.634;2024-01-30T00:51:59;2.50;1.00
1602;DHT22;794;48.592;9.634;2024-01-30T00:54:26;0.80;1.00
1602;DHT22;794;48.592;9.634;2024-01-30T00:56:53;2.90;1.00
1602;DHT22;794;48.592;9.634;2024-01-30T00:59:21;1.00;1.00
1602;DHT22;794;48.592;9.634;2024-01-30T01:01:48;0.90;1.00
1602;DHT22;794;48.592;9.634;2024-01-30T01:04:15;1.10;1.00
1602;DHT22;794;48.592;9.634;2024-01-30T01:06:43;1.10;1.00
1602;DHT22;794;48.592;9.634;2024-01-30T01:09:10;2.00;1.00
1602;DHT22;794;48.592;9.634;2024-01-30T01:11:37;1.10;1.00
1602;DHT22;794;48.592;9.634;2024-01-30T01:14:05;1.20;1.00
1602;DHT22;794;48.592;9.634;2024-01-30T01:16:33;1.10;1.00
1602;DHT22;794;48.592;9.634;2024-01-30T01:19:00;0.90;1.00
1602;DHT22;794;48.592;9.634;2024-01-30T01:21:27;1.20;1.00
1602;DHT22;794;48.592;9.634;2024-01-30T01:23:54;1.00;1.00
1602;DHT22;794;48.592;9.634;2024-01-30T01:26:21;3.00;1.00
1602;DHT22;794;48.592;9.634;2024-01-30T01:28:48;1.20;1.00
1602;DHT22;794;48.592;9.634;2024-01-30T01:31:15;0.90;1.00
1602;DHT22;794;48.592;9.634;2024-01-30T01:33:44;1.80;1.00
1602;DHT22;794;48.592;9.634;2024-01-30T01:36:11;3.70;1.00
1602;DHT22;794;48.592;9.634;2024-01-30T01:38:40;1.20;1.00
1602;DHT22;794;48.592;9.634;2024-01-30T01:41:06;1.20;1.00
1602;DHT22;794;48.592;9.634;2024-01-30T01:43:33;2.20;1.00
1602;DHT22;794;48.592;9.634;2024-01-30T01:46:00;3.40;1.00
1602;DHT22;794;48.592;9.634;2024-01-30T01:48:27;1.80;1.00
1602;DHT22;794;48.592;9.634;2024-01-30T01:50:56;1.40;1.00
1602;DHT22;794;48.592;9.634;2024-01-30T01:53:23;1.80;1.00
1602;DHT22;794;48.592;9.634;2024-01-30T01:55:50;1.30;1.00
1602;DHT22;794;48.592;9.634;2024-01-30T01:58:19;1.30;1.00
1602;DHT22;794;48.592;9.634;2024-01-30T02:00:47;1.40;1.00
1602;DHT22;794;48.592;9.634;2024-01-30T02:03:17;1.20;1.00
1602;DHT22;794;48.592;9.634;2024-01-30T02:05:47;1.30;1.00
1602;DHT22;794;48.592;9.634;2024-01-30T02:08:15;2.50;1.00
1602;DHT22;794;48.592;9.634;2024-01-30T02:10:42;3.10;1.00
1602;DHT22;794;48.592;9.634;2024-01-30T02:13:09;1.30;1.00
1602;DHT22;794;48.592;9.634;2024-01-30T02:15:36;1.30;1.00
1602;DHT22;794;48.592;9.634;2024-01-30T02:18:03;1.40;1.00
1602;DHT22;794;48.592;9.634;2024-01-30T02:20:30;1.30;1.00
1602;DHT22;794;48.592;9.634;2024-01-30T02:23:01;2.00;1.00
1602;DHT22;794;48.592;9.634;2024-01-30T02:25:32;1.40;1.00
1602;DHT22;794;48.592;9.634;2024-01-30T02:27:59;1.40;1.00
1602;DHT22;794;48.592;9.634;2024-01-30T02:30:26;1.40;1.00
1602;DHT22;794;48.592;9.634;2024-01-30T02:32:53;1.40;1.00
1602;DHT22;794;48.592;9.634;2024-01-30T02:35:20;1.50;1.00
1602;DHT22;794;48.592;9.634;2024-01-30T02:37:47;2.30;1.00
1602;DHT22;794;48.592;9.634;2024-01-30T02:40:15;2.10;1.00
1602;DHT22;794;48.592;9.634;2024-01-30T02:42:42;1.60;1.00
1602;DHT22;794;48.592;9.634;2024-01-30T02:45:10;1.40;1.00
1602;DHT22;794;48.592;9.634;2024-01-30T02:47:38;1.60;1.00
1602;DHT22;794;48.592;9.634;2024-01-30T02:50:06;1.60;1.00
1602;DHT22;794;48.592;9.634;2024-01-30T02:52:33;1.30;1.00
1602;DHT22;794;48.592;9.634;2024-01-30T02:55:00;1.30;1.00
1602;DHT22;794;48.592;9.634;2024-01-30T02:57:29;1.40;1.00
1602;DHT22;794;48.592;9.634;2024-01-30T02:59:56;2.80;1.00
1602;DHT22;794;48.592;9.634;2024-01-30T03:02:23;2.10;1.00
1602;DHT22;794;48.592;9.634;2024-01-30T03:04:50;1.70;1.00
1602;DHT22;794;48.592;9.634;2024-01-30T03:07:17;1.40;1.00
1602;DHT22;794;48.592;9.634;2024-01-30T03:09:44;1.30;1.00
1602;DHT22;794;48.592;9.634;2024-01-30T03:12:11;2.50;1.00
1602;DHT22;794;48.592;9.634;2024-01-30T03:14:39;1.20;1.00
1602;DHT22;794;48.592;9.634;2024-01-30T03:17:06;1.00;1.00
1602;DHT22;794;48.592;9.634;2024-01-30T03:19:33;3.10;1.00
1602;DHT22;794;48.592;9.634;2024-01-30T03:22:00;1.30;1.00
1602;DHT22;794;48.592;9.634;2024-01-30T03:24:27;2.00;1.00
1602;DHT22;794;48.592;9.634;2024-01-30T03:26:54;1.30;1.00
1602;DHT22;794;48.592;9.634;2024-01-30T03:29:21;1.20;1.00
1602;DHT22;794;48.592;9.634;2024-01-30T03:31:49;1.30;1.00
1602;DHT22;794;48.592;9.634;2024-01-30T03:34:16;1.60;1.00
1602;DHT22;794;48.592;9.634;2024-01-30T03:36:43;0.80;1.00
1602;DHT22;794;48.592;9.634;2024-01-30T03:39:10;2.20;1.00
1602;DHT22;794;48.592;9.634;2024-01-30T03:41:37;1.20;1.00
1602;DHT22;794;48.592;9.634;2024-01-30T03:44:05;1.20;1.00
1602;DHT22;794;48.592;9.634;2024-01-30T03:46:32;1.10;1.00
1602;DHT22;794;48.592;9.634;2024-01-30T03:49:00;0.90;1.00
1602;DHT22;794;48.592;9.634;2024-01-30T03:51:27;2.80;1.00
1602;DHT22;794;48.592;9.634;2024-01-30T03:53:54;0.90;1.00
1602;DHT22;794;48.592;9.634;2024-01-30T03:56:21;1.10;1.00
1602;DHT22;794;48.592;9.634;2024-01-30T03:58:48;0.90;1.00
1602;DHT22;794;48.592;9.634;2024-01-30T04:03:42;1.10;1.00
1602;DHT22;794;48.592;9.634;2024-01-30T04:06:11;2.00;1.00
1602;DHT22;794;48.592;9.634;2024-01-30T04:08:38;1.10;1.00
1602;DHT22;794;48.592;9.634;2024-01-30T04:11:06;0.70;1.00
1602;DHT22;794;48.592;9.634;2024-01-30T04:13:33;0.90;1.00
1602;DHT22;794;48.592;9.634;2024-01-30T04:16:00;2.90;1.00
1602;DHT22;794;48.592;9.634;2024-01-30T04:18:28;1.70;1.00
1602;DHT22;794;48.592;9.634;2024-01-30T04:20:55;0.70;1.00
1602;DHT22;794;48.592;9.634;2024-01-30T04:23:23;1.20;1.00
1602;DHT22;794;48.592;9.634;2024-01-30T04:25:50;0.90;1.00
1602;DHT22;794;48.592;9.634;2024-01-30T04:28:17;0.80;1.00
1602;DHT22;794;48.592;9.634;2024-01-30T04:30:44;1.60;1.00
1602;DHT22;794;48.592;9.634;2024-01-30T04:33:11;0.70;1.00
1602;DHT22;794;48.592;9.634;2024-01-30T04:35:38;0.80;1.00
1602;DHT22;794;48.592;9.634;2024-01-30T04:38:05;2.00;1.00
1602;DHT22;794;48.592;9.634;2024-01-30T04:40:33;0.60;1.00
1602;DHT22;794;48.592;9.634;2024-01-30T04:43:00;1.90;1.00
1602;DHT22;794;48.592;9.634;2024-01-30T04:45:27;2.40;1.00
1602;DHT22;794;48.592;9.634;2024-01-30T04:47:54;0.70;1.00
1602;DHT22;794;48.592;9.634;2024-01-30T04:50:20;0.80;1.00
1602;DHT22;794;48.592;9.634;2024-01-30T04:52:47;1.00;1.00
1602;DHT22;794;48.592;9.634;2024-01-30T04:55:14;1.30;1.00
1602;DHT22;794;48.592;9.634;2024-01-30T04:57:43;0.80;1.00
1602;DHT22;794;48.592;9.634;2024-01-30T05:00:10;2.70;1.00
1602;DHT22;794;48.592;9.634;2024-01-30T05:02:38;0.90;1.00
1602;DHT22;794;48.592;9.634;2024-01-30T05:05:05;2.10;1.00
1602;DHT22;794;48.592;9.634;2024-01-30T05:07:33;0.80;1.00
1602;DHT22;794;48.592;9.634;2024-01-30T05:10:00;1.90;1.00
1602;DHT22;794;48.592;9.634;2024-01-30T05:12:27;1.70;1.00
1602;DHT22;794;48.592;9.634;2024-01-30T05:14:55;0.70;1.00
1602;DHT22;794;48.592;9.634;2024-01-30T05:19:49;0.70;1.00
1602;DHT22;794;48.592;9.634;2024-01-30T05:22:16;2.30;1.00
1602;DHT22;794;48.592;9.634;2024-01-30T05:24:44;0.70;1.00
1602;DHT22;794;48.592;9.634;2024-01-30T05:27:11;1.30;1.00
1602;DHT22;794;48.592;9.634;2024-01-30T05:29:39;0.70;1.00
1602;DHT22;794;48.592;9.634;2024-01-30T05:32:08;0.50;1.00
1602;DHT22;794;48.592;9.634;2024-01-30T05:34:36;1.70;1.00
1602;DHT22;794;48.592;9.634;2024-01-30T05:37:03;0.60;1.00
1602;DHT22;794;48.592;9.634;2024-01-30T05:39:30;0.70;1.00
1602;DHT22;794;48.592;9.634;2024-01-30T05:41:58;0.60;1.00
1602;DHT22;794;48.592;9.634;2024-01-30T05:44:25;2.50;1.00
1602;DHT22;794;48.592;9.634;2024-01-30T05:46:52;0.80;1.00
1602;DHT22;794;48.592;9.634;2024-01-30T05:49:20;0.70;1.00
1602;DHT22;794;48.592;9.634;2024-01-30T05:51:47;1.50;1.00
1602;DHT22;794;48.592;9.634;2024-01-30T05:54:14;0.70;1.00
1602;DHT22;794;48.592;9.634;2024-01-30T05:56:41;0.60;1.00
1602;DHT22;794;48.592;9.634;2024-01-30T05:59:08;0.80;1.00
1602;DHT22;794;48.592;9.634;2024-01-30T06:01:35;0.70;1.00
1602;DHT22;794;48.592;9.634;2024-01-30T06:04:02;0.70;1.00
1602;DHT22;794;48.592;9.634;2024-01-30T06:06:30;1.00;1.00
1602;DHT22;794;48.592;9.634;2024-01-30T06:08:57;1.20;1.00
1602;DHT22;794;48.592;9.634;2024-01-30T06:11:24;3.10;1.00
1602;DHT22;794;48.592;9.634;2024-01-30T06:13:51;0.80;1.00
1602;DHT22;794;48.592;9.634;2024-01-30T06:16:18;2.90;1.00
1602;DHT22;794;48.592;9.634;2024-01-30T06:18:46;0.90;1.00
1602;DHT22;794;48.592;9.634;2024-01-30T06:21:13;2.70;1.00
1602;DHT22;794;48.592;9.634;2024-01-30T06:23:41;1.20;1.00
1602;DHT22;794;48.592;9.634;2024-01-30T06:26:08;1.10;1.00
1602;DHT22;794;48.592;9.634;2024-01-30T06:28:36;2.00;1.00
1602;DHT22;794;48.592;9.634;2024-01-30T06:31:03;1.40;1.00
1602;DHT22;794;48.592;9.634;2024-01-30T06:33:30;1.40;1.00
1602;DHT22;794;48.592;9.634;2024-01-30T06:35:57;1.30;1.00
1602;DHT22;794;48.592;9.634;2024-01-30T06:38:24;2.80;1.00
1602;DHT22;794;48.592;9.634;2024-01-30T06:40:52;1.80;1.00
1602;DHT22;794;48.592;9.634;2024-01-30T06:43:19;1.40;1.00
1602;DHT22;794;48.592;9.634;2024-01-30T06:45:46;1.70;1.00
1602;DHT22;794;48.592;9.634;2024-01-30T06:48:12;1.30;1.00
1602;DHT22;794;48.592;9.634;2024-01-30T06:50:51;2.70;1.00
1602;DHT22;794;48.592;9.634;2024-01-30T06:53:39;1.40;1.00
1602;DHT22;794;48.592;9.634;2024-01-30T06:56:08;1.30;1.00
1602;DHT22;794;48.592;9.634;2024-01-30T06:58:35;1.40;1.00
1602;DHT22;794;48.592;9.634;2024-01-30T07:01:02;1.70;1.00
1602;DHT22;794;48.592;9.634;2024-01-30T07:03:29;1.70;1.00
1602;DHT22;794;48.592;9.634;2024-01-30T07:05:56;3.30;1.00
1602;DHT22;794;48.592;9.634;2024-01-30T07:08:23;2.80;1.00
1602;DHT22;794;48.592;9.634;2024-01-30T07:10:50;2.00;1.00
1602;DHT22;794;48.592;9.634;2024-01-30T07:13:22;1.90;1.00
1602;DHT22;794;48.592;9.634;2024-01-30T07:15:49;2.10;1.00
1602;DHT22;794;48.592;9.634;2024-01-30T07:18:16;3.80;1.00
1602;DHT22;794;48.592;9.634;2024-01-30T07:20:43;0.90;1.00
1602;DHT22;794;48.592;9.634;2024-01-30T07:23:11;3.80;1.00
1602;DHT22;794;48.592;9.634;2024-01-30T07:25:42;2.00;1.00
1602;DHT22;794;48.592;9.634;2024-01-30T07:28:09;2.10;1.00
1602;DHT22;794;48.592;9.634;2024-01-30T07:30:38;2.10;1.00
1602;DHT22;794;48.592;9.634;2024-01-30T07:33:05;2.40;1.00
1602;DHT22;794;48.592;9.634;2024-01-30T07:35:32;4.40;1.00
1602;DHT22;794;48.592;9.634;2024-01-30T07:42:53;2.70;1.00
1602;DHT22;794;48.592;9.634;2024-01-30T07:47:51;2.80;1.00
1602;DHT22;794;48.592;9.634;2024-01-30T07:50:18;2.70;1.00
1602;DHT22;794;48.592;9.634;2024-01-30T07:52:45;3.00;1.00
1602;DHT22;794;48.592;9.634;2024-01-30T08:00:09;3.20;1.00
1602;DHT22;794;48.592;9.634;2024-01-30T08:05:07;3.70;1.00
1602;DHT22;794;48.592;9.634;2024-01-30T08:07:36;4.00;1.00
1602;DHT22;794;48.592;9.634;2024-01-30T08:10:03;5.40;1.00
1602;DHT22;794;48.592;9.634;2024-01-30T08:12:30;4.20;1.00
1602;DHT22;794;48.592;9.634;2024-01-30T08:22:20;4.50;1.00
1602;DHT22;794;48.592;9.634;2024-01-30T08:24:50;4.60;1.00
1602;DHT22;794;48.592;9.634;2024-01-30T08:27:20;5.00;1.00
1602;DHT22;794;48.592;9.634;2024-01-30T08:29:46;4.90;1.00
1602;DHT22;794;48.592;9.634;2024-01-30T08:32:16;5.50;1.00
1602;DHT22;794;48.592;9.634;2024-01-30T08:37:11;4.80;1.00
1602;DHT22;794;48.592;9.634;2024-01-30T08:39:46;5.10;1.00
1602;DHT22;794;48.592;9.634;2024-01-30T08:42:14;5.50;1.00
1602;DHT22;794;48.592;9.634;2024-01-30T08:44:41;5.30;1.00
1602;DHT22;794;48.592;9.634;2024-01-30T08:47:25;5.20;1.00
1602;DHT22;794;48.592;9.634;2024-01-30T08:54:50;5.80;1.00
1602;DHT22;794;48.592;9.634;2024-01-30T08:57:17;6.20;1.00
1602;DHT22;794;48.592;9.634;2024-01-30T09:10:21;7.00;1.00
1602;DHT22;794;48.592;9.634;2024-01-30T09:20:20;7.60;1.00
1602;DHT22;794;48.592;9.634;2024-01-30T09:27:47;8.20;1.00
1602;DHT22;794;48.592;9.634;2024-01-30T09:40:05;8.90;1.00
1602;DHT22;794;48.592;9.634;2024-01-30T09:42:34;9.90;1.00
1602;DHT22;794;48.592;9.634;2024-01-30T09:45:03;10.20;1.00
1602;DHT22;794;48.592;9.634;2024-01-30T09:47:32;10.80;1.00
1602;DHT22;794;48.592;9.634;2024-01-30T10:02:19;12.70;1.00
1602;DHT22;794;48.592;9.634;2024-01-30T10:04:47;12.90;1.00
1602;DHT22;794;48.592;9.634;2024-01-30T10:14:38;13.90;1.00
1602;DHT22;794;48.592;9.634;2024-01-30T10:19:34;14.00;1.00
1602;DHT22;794;48.592;9.634;2024-01-30T10:31:58;15.30;1.00
1602;DHT22;794;48.592;9.634;2024-01-30T10:37:00;15.30;1.00
1602;DHT22;794;48.592;9.634;2024-01-30T10:39:31;15.10;1.00
1602;DHT22;794;48.592;9.634;2024-01-30T10:42:03;14.80;1.00
1602;DHT22;794;48.592;9.634;2024-01-30T10:44:36;14.50;1.00
1602;DHT22;794;48.592;9.634;2024-01-30T10:47:07;14.40;1.00
1602;DHT22;794;48.592;9.634;2024-01-30T10:52:05;15.20;1.00
1602;DHT22;794;48.592;9.634;2024-01-30T10:54:34;14.60;1.00
1602;DHT22;794;48.592;9.634;2024-01-30T11:01:58;14.10;1.00
1602;DHT22;794;48.592;9.634;2024-01-30T11:09:21;14.70;1.00
1602;DHT22;794;48.592;9.634;2024-01-30T11:11:49;14.30;1.00
1602;DHT22;794;48.592;9.634;2024-01-30T11:19:11;14.50;1.00
1602;DHT22;794;48.592;9.634;2024-01-30T11:21:41;14.30;1.00
1602;DHT22;794;48.592;9.634;2024-01-30T11:26:39;14.30;1.00
1602;DHT22;794;48.592;9.634;2024-01-30T11:31:36;14.60;1.00
1602;DHT22;794;48.592;9.634;2024-01-30T11:34:03;14.70;1.00
1602;DHT22;794;48.592;9.634;2024-01-30T11:36:32;14.80;1.00
1602;DHT22;794;48.592;9.634;2024-01-30T11:41:30;14.60;1.00
1602;DHT22;794;48.592;9.634;2024-01-30T11:43:58;14.10;1.00
1602;DHT22;794;48.592;9.634;2024-01-30T11:46:25;14.10;1.00
1602;DHT22;794;48.592;9.634;2024-01-30T11:48:52;14.40;1.00
1602;DHT22;794;48.592;9.634;2024-01-30T11:53:49;14.40;1.00
1602;DHT22;794;48.592;9.634;2024-01-30T12:01:12;14.50;1.00
1602;DHT22;794;48.592;9.634;2024-01-30T12:11:01;14.00;1.00
1602;DHT22;794;48.592;9.634;2024-01-30T12:13:30;14.00;1.00
1602;DHT22;794;48.592;9.634;2024-01-30T12:15:58;13.50;1.00
1602;DHT22;794;48.592;9.634;2024-01-30T12:18:26;13.20;1.00
1602;DHT22;794;48.592;9.634;2024-01-30T12:20:57;13.30;1.00
1602;DHT22;794;48.592;9.634;2024-01-30T12:23:24;13.60;1.00
1602;DHT22;794;48.592;9.634;2024-01-30T12:28:19;13.10;1.00
1602;DHT22;794;48.592;9.634;2024-01-30T12:30:46;13.40;1.00
1602;DHT22;794;48.592;9.634;2024-01-30T12:33:16;13.30;1.00
1602;DHT22;794;48.592;9.634;2024-01-30T12:35:47;13.10;1.00
1602;DHT22;794;48.592;9.634;2024-01-30T12:38:14;12.80;1.00
1602;DHT22;794;48.592;9.634;2024-01-30T12:40:41;12.90;1.00
1602;DHT22;794;48.592;9.634;2024-01-30T12:43:08;12.80;1.00
1602;DHT22;794;48.592;9.634;2024-01-30T12:45:36;13.40;1.00
1602;DHT22;794;48.592;9.634;2024-01-30T12:48:04;13.40;1.00
1602;DHT22;794;48.592;9.634;2024-01-30T12:52:59;13.20;1.00
1602;DHT22;794;48.592;9.634;2024-01-30T12:55:26;13.30;1.00
1602;DHT22;794;48.592;9.634;2024-01-30T13:00:21;13.40;1.00
1602;DHT22;794;48.592;9.634;2024-01-30T13:02:57;13.40;1.00
1602;DHT22;794;48.592;9.634;2024-01-30T13:05:29;13.40;1.00
1602;DHT22;794;48.592;9.634;2024-01-30T13:10:25;13.60;1.00
1602;DHT22;794;48.592;9.634;2024-01-30T13:12:53;13.50;1.00
1602;DHT22;794;48.592;9.634;2024-01-30T13:15:20;13.40;1.00
1602;DHT22;794;48.592;9.634;2024-01-30T13:17:48;13.60;1.00
1602;DHT22;794;48.592;9.634;2024-01-30T13:25:12;13.40;1.00
1602;DHT22;794;48.592;9.634;2024-01-30T13:27:41;13.70;1.00
1602;DHT22;794;48.592;9.634;2024-01-30T13:35:03;13.30;1.00
1602;DHT22;794;48.592;9.634;2024-01-30T13:39:57;13.10;1.00
1602;DHT22;794;48.592;9.634;2024-01-30T13:42:24;13.30;1.00
1602;DHT22;794;48.592;9.634;2024-01-30T13:44:52;13.30;1.00
1602;DHT22;794;48.592;9.634;2024-01-30T13:49:47;12.70;1.00
1602;DHT22;794;48.592;9.634;2024-01-30T13:54:43;12.90;1.00
1602;DHT22;794;48.592;9.634;2024-01-30T13:59:38;12.80;1.00
1602;DHT22;794;48.592;9.634;2024-01-30T14:02:06;12.70;1.00
1602;DHT22;794;48.592;9.634;2024-01-30T14:07:03;13.10;1.00
1602;DHT22;794;48.592;9.634;2024-01-30T14:16:52;12.50;1.00
1602;DHT22;794;48.592;9.634;2024-01-30T14:19:21;12.50;1.00
1602;DHT22;794;48.592;9.634;2024-01-30T14:21:48;12.60;1.00
1602;DHT22;794;48.592;9.634;2024-01-30T14:24:27;12.30;1.00
1602;DHT22;794;48.592;9.634;2024-01-30T14:27:03;12.30;1.00
1602;DHT22;794;48.592;9.634;2024-01-30T14:29:33;12.50;1.00
1602;DHT22;794;48.592;9.634;2024-01-30T14:32:01;12.40;1.00
1602;DHT22;794;48.592;9.634;2024-01-30T14:34:29;12.50;1.00
1602;DHT22;794;48.592;9.634;2024-01-30T14:36:56;12.30;1.00
1602;DHT22;794;48.592;9.634;2024-01-30T14:44:17;12.20;1.00
1602;DHT22;794;48.592;9.634;2024-01-30T14:46:44;12.20;1.00
1602;DHT22;794;48.592;9.634;2024-01-30T14:49:11;12.40;1.00
1602;DHT22;794;48.592;9.634;2024-01-30T14:51:40;12.00;1.00
1602;DHT22;794;48.592;9.634;2024-01-30T14:54:07;12.00;1.00
1602;DHT22;794;48.592;9.634;2024-01-30T15:01:28;12.10;1.00
1602;DHT22;794;48.592;9.634;2024-01-30T15:03:55;12.10;1.00
1602;DHT22;794;48.592;9.634;2024-01-30T15:08:52;11.60;1.00
1602;DHT22;794;48.592;9.634;2024-01-30T15:11:19;11.70;1.00
1602;DHT22;794;48.592;9.634;2024-01-30T15:16:14;11.10;1.00
1602;DHT22;794;48.592;9.634;2024-01-30T15:21:08;11.10;1.00
1602;DHT22;794;48.592;9.634;2024-01-30T15:26:04;10.40;1.00
1602;DHT22;794;48.592;9.634;2024-01-30T15:28:35;10.30;1.00
1602;DHT22;794;48.592;9.634;2024-01-30T15:31:03;10.60;1.00
1602;DHT22;794;48.592;9.634;2024-01-30T15:43:21;9.70;1.00
1602;DHT22;794;48.592;9.634;2024-01-30T15:48:17;9.60;1.00
1602;DHT22;794;48.592;9.634;2024-01-30T15:50:44;9.40;1.00
1602;DHT22;794;48.592;9.634;2024-01-30T15:53:11;9.60;1.00
1602;DHT22;794;48.592;9.634;2024-01-30T15:58:05;9.60;1.00
1602;DHT22;794;48.592;9.634;2024-01-30T16:00:33;9.40;1.00
1602;DHT22;794;48.592;9.634;2024-01-30T16:07:55;8.80;1.00
1602;DHT22;794;48.592;9.634;2024-01-30T16:10:25;8.60;1.00
1602;DHT22;794;48.592;9.634;2024-01-30T16:12:51;8.50;1.00
1602;DHT22;794;48.592;9.634;2024-01-30T16:17:56;8.30;1.00
1602;DHT22;794;48.592;9.634;2024-01-30T16:20:28;8.50;1.00
1602;DHT22;794;48.592;9.634;2024-01-30T16:32:52;8.00;1.00
1602;DHT22;794;48.592;9.634;2024-01-30T16:45:08;8.20;1.00
1602;DHT22;794;48.592;9.634;2024-01-30T16:47:35;9.40;1.00
1602;DHT22;794;48.592;9.634;2024-01-30T16:50:06;7.80;1.00
1602;DHT22;794;48.592;9.634;2024-01-30T17:07:18;7.50;1.00
1602;DHT22;794;48.592;9.634;2024-01-30T17:09:45;7.60;1.00
1602;DHT22;794;48.592;9.634;2024-01-30T17:12:12;7.30;1.00
1602;DHT22;794;48.592;9.634;2024-01-30T17:14:39;7.30;1.00
1602;DHT22;794;48.592;9.634;2024-01-30T17:22:03;7.10;1.00
1602;DHT22;794;48.592;9.634;2024-01-30T17:24:33;7.20;1.00
1602;DHT22;794;48.592;9.634;2024-01-30T17:34:25;6.90;1.00
1602;DHT22;794;48.592;9.634;2024-01-30T17:41:49;6.90;1.00
1602;DHT22;794;48.592;9.634;2024-01-30T17:56:36;7.10;1.00
1602;DHT22;794;48.592;9.634;2024-01-30T17:59:04;6.80;1.00
1602;DHT22;794;48.592;9.634;2024-01-30T18:01:31;6.90;1.00
1602;DHT22;794;48.592;9.634;2024-01-30T18:03:58;6.80;1.00
1602;DHT22;794;48.592;9.634;2024-01-30T18:06:25;6.90;1.00
1602;DHT22;794;48.592;9.634;2024-01-30T18:11:20;6.90;1.00
1602;DHT22;794;48.592;9.634;2024-01-30T18:16:18;6.60;1.00
1602;DHT22;794;48.592;9.634;2024-01-30T18:33:31;6.80;1.00
1602;DHT22;794;48.592;9.634;2024-01-30T18:45:52;6.40;1.00
1602;DHT22;794;48.592;9.634;2024-01-30T18:50:48;6.60;1.00
1602;DHT22;794;48.592;9.634;2024-01-30T19:08:03;6.40;1.00
1602;DHT22;794;48.592;9.634;2024-01-30T19:12:57;6.40;1.00
1602;DHT22;794;48.592;9.634;2024-01-30T19:25:17;6.80;1.00
1602;DHT22;794;48.592;9.634;2024-01-30T19:30:12;6.60;1.00
1602;DHT22;794;48.592;9.634;2024-01-30T19:42:32;6.90;1.00
1602;DHT22;794;48.592;9.634;2024-01-30T19:59:45;6.80;1.00
1602;DHT22;794;48.592;9.634;2024-01-30T20:17:03;6.90;1.00
1602;DHT22;794;48.592;9.634;2024-01-30T20:34:16;6.90;1.00
1602;DHT22;794;48.592;9.634;2024-01-30T20:41:41;6.90;1.00
1602;DHT22;794;48.592;9.634;2024-01-30T20:44:09;7.00;1.00
1602;DHT22;794;48.592;9.634;2024-01-30T20:51:34;7.10;1.00
1602;DHT22;794;48.592;9.634;2024-01-30T21:08:48;7.00;1.00
1602;DHT22;794;48.592;9.634;2024-01-30T21:26:04;6.50;1.00
1602;DHT22;794;48.592;9.634;2024-01-30T21:43:22;6.40;1.00
1602;DHT22;794;48.592;9.634;2024-01-30T22:00:33;6.20;1.00
1602;DHT22;794;48.592;9.634;2024-01-30T22:17:46;5.90;1.00
1602;DHT22;794;48.592;9.634;2024-01-30T22:25:08;5.80;1.00
1602;DHT22;794;48.592;9.634;2024-01-30T22:34:58;5.50;1.00
1602;DHT22;794;48.592;9.634;2024-01-30T22:39:52;5.60;1.00
1602;DHT22;794;48.592;9.634;2024-01-30T22:52:10;5.20;1.00
1602;DHT22;794;48.592;9.634;2024-01-30T22:57:04;5.00;1.00
1602;DHT22;794;48.592;9.634;2024-01-30T23:01:58;5.00;1.00
1602;DHT22;794;48.592;9.634;2024-01-30T23:06:52;5.00;1.00
1602;DHT22;794;48.592;9.634;2024-01-30T23:09:21;6.40;1.00
1602;DHT22;794;48.592;9.634;2024-01-30T23:11:48;4.90;1.00
1602;DHT22;794;48.592;9.634;2024-01-30T23:19:09;5.00;1.00
1602;DHT22;794;48.592;9.634;2024-01-30T23:26:33;5.20;1.00
1602;DHT22;794;48.592;9.634;2024-01-30T23:31:27;5.40;1.00
1602;DHT22;794;48.592;9.634;2024-01-30T23:38:48;5.30;1.00
1602;DHT22;794;48.592;9.634;2024-01-30T23:43:44;5.70;1.00
